Citrus Heights, California
Current Conditions -  °F | °C
As of 11:35 PM on Sunday 21 Dec 2014 (Local Time) from KMCC Reporting Station
Light Rain Light Rain  
Wind Chill: 54°   Ceiling: 100
Heat Index: 54°   Visibility: 0mi
Dew Point: 54°   Wind: 7mph
Humidity: 100%   Direction: 340°NNW
Pressure: 30.29"   Gusts: NA
Location:  38.7°N, 121.27°W
Report Text: KMCC 220735Z AUTO 34006KT M1/4SM -RA OVC001 12/12 A3029 RMK AO2
Loading
Personal Weather Stations






























Interactive Weather Map New forecast layout! Learn more

10-Day Weather Forecast

Advertisements
Track Severe Weather on mobile